Time;durP1;ratioP1;P1;durP2;ratioP2;P2;SDS_P1;SDS_P2;PMS_P1;PMS_P2;Temp;Humidity;BMP_temperature;BMP_pressure;BME280_temperature;BME280_humidity;BME280_pressure;Samples;Min_cycle;Max_cycle;Signal;HPM_P1;HPM_P2
2022/10/31 00:00:46;;;;;;;7.40;3.40;;;12.80;99.90;;;12.48;100.00;97704.06;4993277;28;20036;-48
2022/10/31 00:03:12;;;;;;;6.28;2.97;;;12.80;99.90;;;12.46;100.00;97708.56;5018774;23;20053;-59
2022/10/31 00:05:46;;;;;;;8.45;3.40;;;12.80;99.90;;;12.46;100.00;97708.56;5019111;28;20025;-62
2022/10/31 00:08:12;;;;;;;6.07;3.15;;;12.80;99.90;;;12.41;100.00;97706.94;5020579;28;20060;-61
2022/10/31 00:10:39;;;;;;;5.78;2.90;;;12.80;99.90;;;12.43;100.00;97708.69;5019281;28;20099;-61
2022/10/31 00:13:06;;;;;;;5.75;3.70;;;12.80;99.90;;;12.41;100.00;97708.72;5007590;28;20653;-61
2022/10/31 00:15:37;;;;;;;6.28;3.45;;;12.70;99.90;;;12.40;100.00;97713.16;5004312;28;20065;-63
2022/10/31 00:18:04;;;;;;;9.95;3.85;;;12.70;99.90;;;12.39;100.00;97710.59;5009241;28;20084;-61
2022/10/31 00:20:30;;;;;;;6.97;3.80;;;12.70;99.90;;;12.36;100.00;97703.63;4999492;28;20449;-62
2022/10/31 00:23:01;;;;;;;7.78;3.65;;;12.70;99.90;;;12.34;100.00;97704.59;5010481;28;20038;-62
2022/10/31 00:25:29;;;;;;;7.55;3.55;;;12.60;99.90;;;12.34;100.00;97712.53;5005497;28;20892;-62
2022/10/31 00:27:55;;;;;;;6.97;3.78;;;12.60;99.90;;;12.32;100.00;97709.09;4998916;28;20075;-61
2022/10/31 00:30:21;;;;;;;4.90;3.20;;;12.60;99.90;;;12.32;100.00;97701.16;4992846;28;20042;-62
2022/10/31 00:32:46;;;;;;;4.57;2.92;;;12.60;99.90;;;12.31;100.00;97710.88;5000814;28;20038;-62
2022/10/31 00:35:12;;;;;;;5.07;2.67;;;12.70;99.90;;;12.17;100.00;97692.91;5002635;28;21412;-62
2022/10/31 00:37:38;;;;;;;5.22;2.90;;;12.70;99.90;;;12.31;100.00;97708.25;5006687;28;20053;-62
2022/10/31 00:40:04;;;;;;;6.78;3.47;;;12.60;99.90;;;12.30;100.00;97703.88;5001729;28;20503;-62
2022/10/31 00:42:30;;;;;;;5.95;2.97;;;12.70;99.90;;;12.26;100.00;97702.28;5005368;28;20033;-61
2022/10/31 00:44:56;;;;;;;5.22;2.88;;;12.60;99.90;;;12.29;100.00;97711.84;5007501;28;20029;-62
2022/10/31 00:47:21;;;;;;;7.30;3.17;;;12.60;99.90;;;12.28;100.00;97713.66;4990669;28;20329;-61
2022/10/31 00:49:47;;;;;;;5.85;3.88;;;12.60;99.90;;;12.26;100.00;97704.91;4990395;28;20029;-60
2022/10/31 00:52:13;;;;;;;7.05;4.03;;;12.50;99.90;;;12.24;100.00;97709.41;5002710;28;20356;-61
2022/10/31 00:54:38;;;;;;;10.43;3.90;;;12.50;99.90;;;12.22;100.00;97703.28;4999408;28;20045;-61
2022/10/31 00:57:04;;;;;;;7.90;4.20;;;12.50;99.90;;;12.20;100.00;97707.78;5001635;28;20403;-60
2022/10/31 00:59:30;;;;;;;7.15;4.05;;;12.50;99.90;;;12.16;100.00;97708.81;4995223;28;20033;-60
2022/10/31 01:01:55;;;;;;;9.80;4.18;;;12.40;99.90;;;12.15;100.00;97709.72;5007232;28;20522;-61
2022/10/31 01:04:21;;;;;;;8.50;3.90;;;12.40;99.90;;;12.12;100.00;97707.22;5002288;28;20067;-60
2022/10/31 01:06:47;;;;;;;7.25;4.20;;;12.40;99.90;;;12.10;100.00;97702.00;5017932;28;20527;-60
2022/10/31 01:09:12;;;;;;;8.07;4.50;;;12.40;99.90;;;12.08;100.00;97706.47;5012977;28;20053;-61
2022/10/31 01:11:38;;;;;;;12.15;4.50;;;12.40;99.90;;;12.08;100.00;97698.56;5006952;28;20087;-61
2022/10/31 01:14:04;;;;;;;10.88;4.53;;;12.40;99.90;;;12.05;100.00;97698.66;5004772;28;20040;-61
2022/10/31 01:16:29;;;;;;;12.63;4.47;;;12.30;99.90;;;12.05;100.00;97697.81;5006238;28;20029;-61
2022/10/31 01:18:55;;;;;;;10.52;4.07;;;12.40;99.90;;;12.03;100.00;97693.44;5001826;28;20159;-60
2022/10/31 01:21:25;;;;;;;7.38;3.83;;;12.30;99.90;;;12.01;100.00;97697.91;4998801;28;21914;-61
2022/10/31 01:23:53;;;;;;;10.20;4.15;;;12.30;99.90;;;12.02;100.00;97698.78;5002528;28;20045;-61
2022/10/31 01:26:25;;;;;;;6.80;3.83;;;12.30;99.90;;;12.02;100.00;97698.78;4997417;28;20475;-60
2022/10/31 01:28:57;;;;;;;8.18;4.00;;;12.30;99.90;;;11.98;100.00;97695.38;5007268;28;20057;-60
2022/10/31 01:31:28;;;;;;;7.28;4.03;;;12.30;99.90;;;11.99;100.00;97693.63;5002603;28;20049;-61
2022/10/31 01:33:54;;;;;;;8.50;3.80;;;12.30;99.90;;;11.96;100.00;97688.44;5001474;28;20045;-61
2022/10/31 01:36:30;;;;;;;9.95;4.53;;;12.30;99.90;;;11.96;100.00;97691.94;5006039;28;20052;-60
2022/10/31 01:39:02;;;;;;;8.63;4.20;;;12.30;99.90;;;11.93;100.00;97686.75;5000434;28;20053;-61
2022/10/31 01:41:32;;;;;;;6.72;4.18;;;12.20;99.90;;;11.94;100.00;97695.56;4999659;28;20148;-61
2022/10/31 01:44:00;;;;;;;14.63;4.55;;;12.20;99.90;;;11.92;100.00;97694.78;4995623;28;20484;-61
2022/10/31 01:46:42;;;;;;;6.90;3.97;;;12.20;99.90;;;11.93;100.00;97693.84;5002749;28;20496;-62
2022/10/31 01:49:36;;;;;;;7.68;4.00;;;12.20;99.90;;;11.91;100.00;97690.41;5004603;28;20072;-60
2022/10/31 01:52:33;;;;;;;7.90;4.18;;;12.20;99.90;;;11.86;100.00;97685.22;5003674;28;20842;-61
2022/10/31 01:55:04;;;;;;;8.55;4.43;;;12.20;99.90;;;11.82;100.00;97684.50;4995333;28;20030;-60
2022/10/31 01:57:33;;;;;;;6.80;4.03;;;12.20;99.90;;;11.80;100.00;97688.97;5003700;28;20045;-61
2022/10/31 02:00:04;;;;;;;7.38;4.15;;;12.10;99.90;;;11.78;100.00;97679.38;4992931;28;20087;-61
2022/10/31 02:02:31;;;;;;;9.13;4.40;;;12.10;99.90;;;11.75;100.00;97685.63;4988482;28;20569;-60
2022/10/31 02:05:02;;;;;;;8.15;4.05;;;12.10;99.90;;;11.73;100.00;97679.56;5001630;28;20427;-60
2022/10/31 02:07:38;;;;;;;10.10;4.20;;;12.10;99.90;;;11.70;100.00;97689.38;5015468;28;20037;-60
2022/10/31 02:10:04;;;;;;;8.65;4.10;;;12.00;99.90;;;11.68;100.00;97689.41;5001274;28;20034;-60
2022/10/31 02:12:32;;;;;;;7.90;3.97;;;12.00;99.90;;;11.66;100.00;97680.69;5001865;28;20079;-60
2022/10/31 02:15:00;;;;;;;7.03;3.60;;;12.00;99.90;;;11.60;100.00;97671.22;4990313;28;20121;-60
2022/10/31 02:17:26;;;;;;;9.40;3.65;;;12.00;99.90;;;11.64;100.00;97682.53;5001924;28;20045;-60
2022/10/31 02:20:19;;;;;;;5.13;3.30;;;12.00;99.90;;;11.61;100.00;97685.28;4981360;28;20053;-60
2022/10/31 02:23:14;;;;;;;7.95;3.35;;;12.00;99.90;;;11.58;100.00;97682.78;4999810;28;20029;-60
2022/10/31 02:26:11;;;;;;;6.82;3.35;;;12.00;99.90;;;11.55;100.00;97681.09;4998279;28;20132;-61
2022/10/31 02:28:58;;;;;;;5.22;3.33;;;11.90;99.90;;;11.51;100.00;97682.13;5001061;28;20112;-60
2022/10/31 02:31:41;;;;;;;6.43;3.15;;;11.90;99.90;;;11.48;100.00;97681.38;5001999;28;20041;-61
2022/10/31 02:34:34;;;;;;;13.32;3.72;;;11.90;99.90;;;11.45;100.00;97683.22;4996587;28;20042;-60
2022/10/31 02:37:36;;;;;;;9.15;3.47;;;11.80;99.90;;;11.42;100.00;97685.09;4994653;28;20044;-61
2022/10/31 02:40:39;;;;;;;6.25;3.70;;;11.80;99.90;;;11.33;100.00;97680.16;4999118;28;20033;-61
2022/10/31 02:43:13;;;;;;;5.32;3.20;;;11.70;99.90;;;11.34;100.00;97687.13;4992493;28;20503;-60
2022/10/31 02:45:58;;;;;;;6.03;3.63;;;11.70;99.90;;;11.28;100.00;97686.44;4999527;28;20416;-60
2022/10/31 02:48:28;;;;;;;7.80;3.40;;;11.70;99.90;;;11.24;100.00;97678.69;4999842;28;20029;-60
2022/10/31 02:51:03;;;;;;;7.65;3.00;;;11.60;99.90;;;11.20;100.00;97687.66;5004742;28;20029;-60
2022/10/31 02:53:33;;;;;;;6.63;2.70;;;11.60;99.90;;;11.19;100.00;97684.13;5000392;28;20189;-61
2022/10/31 02:56:19;;;;;;;4.70;2.88;;;11.60;99.90;;;11.20;100.00;97685.88;5000075;28;20040;-61
2022/10/31 02:58:52;;;;;;;6.53;3.25;;;11.60;99.90;;;11.19;100.00;97689.41;4997933;28;20029;-61
2022/10/31 03:01:29;;;;;;;5.50;3.00;;;11.50;99.90;;;11.17;100.00;97678.03;4999508;28;20125;-60
2022/10/31 03:04:51;;;;;;;7.78;3.70;;;11.50;99.90;;;11.14;100.00;97686.06;4989231;28;20034;-60
2022/10/31 03:07:42;;;;;;;8.15;3.50;;;11.50;99.90;;;11.12;100.00;97679.13;4999358;28;20030;-60
2022/10/31 03:10:36;;;;;;;7.95;3.60;;;11.50;99.90;;;11.08;100.00;97673.09;4998556;28;20022;-60
2022/10/31 03:13:59;;;;;;;11.73;4.05;;;11.40;99.90;;;11.04;100.00;97677.59;4992381;28;20117;-61
2022/10/31 03:16:51;;;;;;;6.60;4.07;;;11.40;99.90;;;11.02;100.00;97676.81;4906478;29;20075;-61
2022/10/31 03:19:28;;;;;;;7.53;3.87;;;11.40;99.90;;;10.98;100.00;97677.84;4913367;29;20525;-61
2022/10/31 03:22:15;;;;;;;9.00;4.28;;;11.30;99.90;;;10.97;100.00;97669.97;4976917;28;20284;-60
2022/10/31 03:24:43;;;;;;;8.93;4.13;;;11.30;99.90;;;10.96;100.00;97673.50;4998794;28;20096;-61
2022/10/31 03:27:13;;;;;;;6.93;4.10;;;11.30;99.90;;;10.91;100.00;97672.78;5002544;28;20111;-60
2022/10/31 03:29:42;;;;;;;9.63;4.05;;;11.30;99.90;;;10.90;100.00;97677.22;5000306;28;20030;-61
2022/10/31 03:32:17;;;;;;;6.57;4.10;;;11.30;99.90;;;10.85;100.00;97680.00;4999621;28;20033;-60
2022/10/31 03:34:45;;;;;;;7.57;3.78;;;11.30;99.90;;;10.85;100.00;97680.00;5004443;28;20041;-60
2022/10/31 03:37:14;;;;;;;7.80;3.50;;;11.30;99.90;;;10.84;100.00;97673.00;5001482;28;20316;-61
2022/10/31 03:39:42;;;;;;;7.82;3.63;;;11.20;99.90;;;10.86;100.00;97676.47;4992587;28;20037;-60
2022/10/31 03:42:14;;;;;;;8.50;3.80;;;11.20;99.90;;;10.84;100.00;97678.28;5004480;28;20390;-60
2022/10/31 03:44:46;;;;;;;4.82;3.22;;;11.30;99.90;;;10.81;100.00;97674.88;4991582;28;20042;-61
2022/10/31 03:47:12;;;;;;;5.85;3.60;;;11.20;99.90;;;10.81;100.00;97681.03;4997412;28;20026;-60
2022/10/31 03:49:38;;;;;;;5.95;3.42;;;11.20;99.90;;;10.78;100.00;97678.47;5003595;28;20065;-60
2022/10/31 03:52:31;;;;;;;7.07;3.45;;;11.20;99.90;;;10.76;100.00;97675.03;4998471;28;20568;-60
2022/10/31 03:55:17;;;;;;;6.30;3.40;;;11.20;99.90;;;10.76;100.00;97682.94;4992341;28;20575;-60
2022/10/31 03:58:11;;;;;;;7.68;3.40;;;11.10;99.90;;;10.74;100.00;97678.66;5000205;28;20037;-60
2022/10/31 04:00:41;;;;;;;7.75;3.40;;;11.10;99.90;;;10.71;100.00;97682.22;4994205;28;20029;-61
2022/10/31 04:03:30;;;;;;;4.93;3.15;;;11.10;99.90;;;10.66;100.00;97673.63;4956906;28;1028652;-60
2022/10/31 04:06:02;;;;;;;5.53;2.85;;;11.00;99.90;;;10.66;100.00;97685.03;4995171;28;20038;-61
2022/10/31 04:08:32;;;;;;;6.75;3.10;;;11.00;99.90;;;10.61;100.00;97679.03;4996384;28;20033;-61
2022/10/31 04:11:00;;;;;;;5.55;3.20;;;11.00;99.90;;;10.61;100.00;97683.47;4998389;28;20042;-61
2022/10/31 04:13:30;;;;;;;8.98;3.42;;;11.00;99.90;;;10.59;100.00;97680.88;4994909;28;20068;-61
2022/10/31 04:15:56;;;;;;;8.32;3.40;;;10.90;99.90;;;10.58;100.00;97676.50;5000745;28;20049;-61
2022/10/31 04:18:26;;;;;;;7.60;3.50;;;11.00;99.90;;;10.55;100.00;97667.81;4998823;28;20081;-62
2022/10/31 04:21:02;;;;;;;7.00;3.80;;;10.90;99.90;;;10.54;100.00;97671.41;4996722;28;20045;-62
2022/10/31 04:23:29;;;;;;;9.57;4.03;;;10.90;99.90;;;10.52;100.00;97668.81;4995728;28;20068;-62
2022/10/31 04:25:55;;;;;;;8.77;4.18;;;10.90;99.90;;;10.29;100.00;97632.59;5000995;28;20038;-63
2022/10/31 04:28:21;;;;;;;6.72;3.90;;;10.90;99.90;;;10.46;100.00;97659.31;4992834;28;20049;-63
2022/10/31 04:30:46;;;;;;;9.57;3.95;;;10.90;99.90;;;10.46;100.00;97664.59;4994187;28;20072;-63
2022/10/31 04:33:12;;;;;;;6.13;3.63;;;10.90;99.90;;;10.42;100.00;97670.00;4998873;28;20371;-62
2022/10/31 04:35:38;;;;;;;6.22;3.90;;;10.80;99.90;;;10.38;100.00;97665.75;5005785;28;20030;-63
2022/10/31 04:38:03;;;;;;;8.80;4.10;;;10.80;99.90;;;10.32;100.00;97665.03;4999020;28;20060;-63
2022/10/31 04:40:29;;;;;;;8.88;3.95;;;10.70;99.90;;;10.29;100.00;97656.31;5001738;28;20632;-63
2022/10/31 04:42:55;;;;;;;7.93;4.03;;;10.70;99.90;;;10.25;100.00;97654.69;4993949;28;20130;-63
2022/10/31 04:45:20;;;;;;;6.20;3.60;;;10.70;99.90;;;10.23;100.00;97651.22;4991598;28;20755;-63
2022/10/31 04:47:46;;;;;;;9.05;4.40;;;10.60;99.90;;;10.22;100.00;97654.78;5001084;28;20044;-62
2022/10/31 04:50:12;;;;;;;7.07;4.13;;;10.60;99.90;;;10.17;100.00;97651.44;5004045;28;23163;-63
2022/10/31 04:52:42;;;;;;;7.90;3.55;;;10.60;99.90;;;10.16;100.00;97647.94;5000131;28;20127;-63
2022/10/31 04:55:09;;;;;;;7.13;3.65;;;10.60;99.90;;;10.15;100.00;97653.25;5004353;28;20298;-63
2022/10/31 04:57:47;;;;;;;11.23;3.97;;;10.60;99.90;;;10.11;100.00;97642.78;5006511;28;20502;-62
2022/10/31 05:00:15;;;;;;;7.05;4.18;;;10.50;99.90;;;10.10;100.00;97645.47;5002181;28;20048;-63
2022/10/31 05:02:49;;;;;;;6.47;4.00;;;10.50;99.90;;;10.07;100.00;97640.31;4999455;28;20034;-63
2022/10/31 05:05:17;;;;;;;8.38;4.18;;;10.50;99.90;;;10.04;100.00;97643.91;4999354;28;20046;-63
2022/10/31 05:07:45;;;;;;;7.80;3.95;;;10.50;99.90;;;9.98;100.00;97630.94;5002790;28;20141;-62
2022/10/31 05:10:15;;;;;;;6.75;3.80;;;10.40;99.90;;;9.98;100.00;97624.78;4999870;28;20070;-63
2022/10/31 05:12:56;;;;;;;6.68;4.05;;;10.40;99.90;;;9.96;100.00;97627.47;4996037;28;20729;-63
2022/10/31 05:15:24;;;;;;;10.55;4.57;;;10.40;99.90;;;9.94;100.00;97632.78;5000839;28;20454;-63
2022/10/31 05:17:51;;;;;;;8.93;3.80;;;10.40;99.90;;;9.89;100.00;97634.69;5002748;28;20037;-63
2022/10/31 05:20:19;;;;;;;7.38;3.95;;;10.30;99.90;;;9.84;100.00;97626.06;4998660;28;20029;-63
2022/10/31 05:22:52;;;;;;;6.60;3.95;;;10.30;99.90;;;9.86;100.00;97632.16;4994447;28;20498;-63
2022/10/31 05:25:19;;;;;;;7.35;3.97;;;10.30;99.90;;;9.84;100.00;97633.13;4997775;28;20068;-63
2022/10/31 05:27:48;;;;;;;7.97;4.18;;;10.30;99.90;;;9.82;100.00;97630.53;4994581;28;20032;-63
2022/10/31 05:30:18;;;;;;;9.10;4.10;;;10.20;99.90;;;9.79;100.00;97625.34;5000933;28;20029;-63
2022/10/31 05:32:46;;;;;;;14.18;4.20;;;10.20;99.90;;;9.78;100.00;97630.66;4990949;28;20484;-63
2022/10/31 05:35:19;;;;;;;8.88;4.45;;;10.20;99.90;;;9.75;100.00;97629.00;5000816;28;20034;-63
2022/10/31 05:37:45;;;;;;;7.68;3.88;;;10.10;99.90;;;9.70;100.00;97626.47;4998380;28;20080;-63
2022/10/31 05:40:13;;;;;;;8.02;3.97;;;10.20;99.90;;;9.71;100.00;97632.63;5007481;28;20318;-62
2022/10/31 05:42:40;;;;;;;5.45;3.55;;;10.10;99.90;;;9.65;100.00;97617.84;4994004;28;20037;-63
2022/10/31 05:45:12;;;;;;;10.70;4.00;;;10.10;99.90;;;9.68;100.00;97616.91;5000269;28;20048;-63
2022/10/31 05:47:38;;;;;;;8.45;4.00;;;10.10;99.90;;;9.65;100.00;97617.84;4997220;28;20064;-62
2022/10/31 05:50:05;;;;;;;10.95;4.05;;;10.10;99.90;;;9.64;100.00;97618.78;4991880;28;20045;-62
2022/10/31 05:52:31;;;;;;;7.45;3.65;;;10.10;99.90;;;9.65;100.00;97615.22;4995999;28;20045;-62
2022/10/31 05:54:56;;;;;;;11.88;5.32;;;10.10;99.90;;;9.66;100.00;97616.94;5010247;28;20446;-62
2022/10/31 05:57:22;;;;;;;8.90;4.05;;;10.10;99.90;;;9.65;100.00;97612.59;4991909;28;20072;-61
2022/10/31 05:59:48;;;;;;;9.65;4.03;;;10.10;99.90;;;9.64;100.00;97616.13;5004239;28;20555;-61
2022/10/31 06:02:14;;;;;;;8.77;3.95;;;10.10;99.90;;;9.63;100.00;97624.94;5000668;28;20025;-61
2022/10/31 06:04:39;;;;;;;7.45;4.00;;;10.10;99.90;;;9.61;100.00;97616.22;4997060;23;20546;-50
2022/10/31 06:07:05;;;;;;;6.03;4.20;;;10.00;99.90;;;9.54;100.00;97609.41;4967928;28;20570;-49
2022/10/31 06:09:31;;;;;;;9.13;4.30;;;10.00;99.90;;;9.59;100.00;97612.78;4966116;28;20430;-48
2022/10/31 06:11:56;;;;;;;14.77;4.35;;;10.00;99.90;;;9.60;100.00;97613.63;4969965;28;20026;-48
2022/10/31 06:14:22;;;;;;;6.78;4.03;;;10.00;99.90;;;9.59;100.00;97612.78;4974504;28;20070;-49
2022/10/31 06:16:48;;;;;;;8.35;4.00;;;10.00;99.90;;;9.60;100.00;97617.16;4974073;28;20404;-48
2022/10/31 06:19:13;;;;;;;6.85;3.78;;;10.00;99.90;;;9.60;100.00;97613.63;4971443;28;20292;-46
2022/10/31 06:21:39;;;;;;;8.18;4.10;;;10.00;99.90;;;9.60;100.00;97611.88;4975792;28;20483;-46
2022/10/31 06:24:05;;;;;;;10.32;3.90;;;10.00;99.90;;;9.60;100.00;97614.50;4975385;28;20038;-50
2022/10/31 06:26:30;;;;;;;12.52;4.20;;;10.00;99.90;;;9.64;100.00;97610.88;4973244;28;20468;-46
2022/10/31 06:28:56;;;;;;;6.72;3.45;;;10.10;99.90;;;9.64;100.00;97610.03;4969834;28;20095;-49
2022/10/31 06:31:22;;;;;;;7.57;4.63;;;10.10;99.90;;;9.58;100.00;97595.25;4970985;28;20030;-46
2022/10/31 06:33:48;;;;;;;7.40;3.88;;;10.10;99.90;;;9.70;100.00;97613.31;4968344;28;20137;-47
2022/10/31 06:36:13;;;;;;;8.02;5.03;;;10.10;99.90;;;9.60;100.00;97590.81;4966694;28;20337;-46
2022/10/31 06:38:39;;;;;;;9.02;4.10;;;10.20;99.90;;;9.73;100.00;97610.59;4972704;28;20510;-48
2022/10/31 06:41:06;;;;;;;6.05;4.25;;;10.20;99.90;;;9.74;100.00;97609.69;4964809;28;20065;-46
2022/10/31 06:43:32;;;;;;;6.15;3.63;;;10.20;99.90;;;9.81;100.00;97610.34;4981891;28;20502;-47
2022/10/31 06:46:03;;;;;;;8.73;3.92;;;10.30;99.90;;;9.85;100.00;97621.66;4968381;28;20035;-46
2022/10/31 06:48:28;;;;;;;6.28;4.50;;;10.30;99.90;;;9.89;100.00;97615.41;4970705;28;20026;-47
2022/10/31 06:51:01;;;;;;;7.32;3.90;;;10.30;99.90;;;9.92;100.00;97618.81;4968505;28;20511;-48
2022/10/31 06:53:29;;;;;;;11.80;4.95;;;10.40;99.90;;;9.96;100.00;97622.22;4970876;28;20487;-46
2022/10/31 06:55:56;;;;;;;8.15;4.53;;;10.40;99.90;;;9.96;100.00;97616.94;4978657;28;20721;-47
2022/10/31 06:58:22;;;;;;;10.63;5.10;;;10.40;99.90;;;10.01;100.00;97615.00;4972698;28;20069;-46
2022/10/31 07:00:48;;;;;;;17.27;5.38;;;10.50;99.90;;;10.03;100.00;97621.13;4969894;28;20413;-45
2022/10/31 07:03:15;;;;;;;12.95;4.82;;;10.50;99.90;;;10.06;100.00;97622.78;4973365;28;20318;-50
2022/10/31 07:05:41;;;;;;;13.05;4.50;;;10.50;99.90;;;10.08;100.00;97615.69;4971449;28;20356;-46
2022/10/31 07:08:11;;;;;;;7.65;4.55;;;10.60;99.90;;;10.12;100.00;97623.44;4973112;28;20791;-46
2022/10/31 07:10:39;;;;;;;9.32;4.65;;;10.60;99.90;;;10.16;100.00;97624.22;4969797;28;20554;-47
2022/10/31 07:13:10;;;;;;;8.88;4.30;;;10.70;99.90;;;10.22;100.00;97625.78;4973122;28;20045;-47
2022/10/31 07:15:38;;;;;;;5.88;3.80;;;10.70;99.90;;;10.24;100.00;97627.44;4970272;28;20034;-46
2022/10/31 07:18:07;;;;;;;10.25;4.00;;;10.70;99.90;;;10.30;100.00;97632.56;4973448;28;20030;-46
2022/10/31 07:20:33;;;;;;;6.72;4.63;;;10.70;99.90;;;10.35;100.00;97634.19;4964990;28;20109;-48
2022/10/31 07:23:00;;;;;;;7.75;4.43;;;10.80;99.90;;;10.40;100.00;97632.28;4954167;28;20911;-48
2022/10/31 07:25:26;;;;;;;11.38;4.13;;;10.90;99.90;;;10.44;100.00;97634.75;4961481;28;20084;-46
2022/10/31 07:27:52;;;;;;;8.18;3.78;;;10.90;99.90;;;10.49;100.00;97626.69;4964199;28;20031;-45
2022/10/31 07:30:18;;;;;;;10.35;3.10;;;10.90;99.90;;;10.56;100.00;97640.56;4964804;28;20548;-47
2022/10/31 07:32:47;;;;;;;7.95;3.40;;;11.00;99.90;;;10.61;100.00;97639.47;4962187;28;20022;-44
2022/10/31 07:35:22;;;;;;;5.80;3.55;;;11.00;99.90;;;10.67;100.00;97636.63;4964099;28;20094;-44
2022/10/31 07:37:48;;;;;;;6.38;3.80;;;11.10;99.90;;;10.74;100.00;97634.66;4963799;28;20022;-47
2022/10/31 07:40:15;;;;;;;5.65;3.40;;;11.20;99.90;;;10.81;100.00;97630.91;4972039;28;20026;-49
2022/10/31 07:42:43;;;;;;;5.55;3.90;;;11.20;99.90;;;10.92;100.00;97627.03;4967998;28;20084;-50
2022/10/31 07:45:12;;;;;;;8.32;4.25;;;11.30;99.90;;;11.00;100.00;97623.22;4974147;28;20358;-47
2022/10/31 07:47:52;;;;;;;6.53;4.40;;;11.40;99.90;;;11.10;100.00;97623.75;4970658;28;20096;-46
2022/10/31 07:50:25;;;;;;;6.82;3.78;;;11.50;99.90;;;11.18;100.00;97632.25;4966828;28;20042;-46
2022/10/31 07:53:05;;;;;;;10.98;4.55;;;11.60;99.90;;;11.28;100.00;97631.00;4971907;28;20252;-46
2022/10/31 07:55:31;;;;;;;11.45;4.22;;;11.70;99.90;;;11.37;100.00;97632.44;4970366;28;20523;-46
2022/10/31 07:58:00;;;;;;;8.00;4.25;;;11.80;99.90;;;11.43;100.00;97620.78;4971889;28;20034;-47
2022/10/31 08:00:26;;;;;;;7.78;3.83;;;11.80;99.90;;;11.52;100.00;97623.13;4975255;28;20321;-48
2022/10/31 08:03:18;;;;;;;6.43;4.05;;;11.90;99.90;;;11.59;100.00;97621.97;4976235;28;20038;-47
2022/10/31 08:05:45;;;;;;;7.75;3.97;;;12.00;99.90;;;11.68;100.00;97626.00;4973815;28;20046;-46
2022/10/31 08:08:12;;;;;;;5.72;3.55;;;12.10;99.90;;;11.77;100.00;97627.44;4975443;28;20531;-48
2022/10/31 08:10:38;;;;;;;4.57;3.22;;;12.20;99.90;;;11.85;100.00;97630.69;4974216;28;20061;-48
2022/10/31 08:13:09;;;;;;;8.48;4.40;;;12.20;99.90;;;11.94;100.00;97625.06;4977588;28;20044;-47
2022/10/31 08:15:37;;;;;;;7.30;4.40;;;12.30;99.90;;;12.03;100.00;97631.78;4972559;28;20125;-47
2022/10/31 08:18:04;;;;;;;7.63;4.18;;;12.40;99.90;;;12.13;100.00;97637.56;4971824;28;20030;-48
2022/10/31 08:20:30;;;;;;;7.20;3.80;;;12.50;99.90;;;12.21;100.00;97635.47;4976477;28;20026;-47
2022/10/31 08:23:01;;;;;;;13.27;4.25;;;12.60;99.90;;;12.26;100.00;97635.28;4975491;28;20522;-50
2022/10/31 08:25:30;;;;;;;8.07;3.28;;;12.70;99.90;;;12.32;100.00;97640.34;4975726;28;20431;-48
2022/10/31 08:27:56;;;;;;;5.60;3.47;;;12.70;99.90;;;12.31;100.00;97630.66;4976656;28;20049;-46
2022/10/31 08:30:26;;;;;;;5.78;3.40;;;12.70;99.90;;;12.45;100.00;97632.75;4977197;28;20034;-50
2022/10/31 08:33:11;;;;;;;7.95;3.60;;;12.80;99.90;;;12.55;100.00;97639.41;4978428;28;20415;-49
2022/10/31 08:35:37;;;;;;;8.85;3.72;;;12.90;99.90;;;12.63;100.00;97626.72;4975617;28;20553;-50
2022/10/31 08:38:03;;;;;;;8.73;4.10;;;13.00;99.90;;;12.70;100.00;97627.31;4978900;28;20038;-48
2022/10/31 08:40:32;;;;;;;6.55;4.60;;;13.10;99.90;;;12.79;100.00;97622.53;4974957;28;20105;-48
2022/10/31 08:43:06;;;;;;;8.77;4.78;;;13.20;99.90;;;12.90;100.00;97621.19;4976814;28;20049;-48
2022/10/31 08:45:34;;;;;;;7.20;4.70;;;13.30;99.90;;;12.88;100.00;97612.44;4976530;28;20034;-47
2022/10/31 08:48:05;;;;;;;8.40;4.38;;;13.30;99.90;;;12.83;100.00;97595.91;4978540;28;20030;-48
2022/10/31 08:50:33;;;;;;;7.75;4.88;;;13.30;99.90;;;13.02;100.00;97611.88;4976936;28;20061;-49
2022/10/31 08:53:05;;;;;;;10.40;5.07;;;13.40;99.90;;;13.04;100.00;97612.66;4975329;28;20073;-49
2022/10/31 08:55:36;;;;;;;9.57;5.13;;;13.40;99.90;;;13.03;100.00;97603.84;4972142;28;20049;-46
2022/10/31 08:58:05;;;;;;;7.60;4.95;;;13.40;99.90;;;13.12;100.00;97605.25;4978713;28;20036;-48
2022/10/31 09:00:32;;;;;;;8.38;4.88;;;13.50;99.90;;;13.20;100.00;97605.75;4973160;28;20022;-46
2022/10/31 09:03:05;;;;;;;7.10;4.20;;;13.60;99.90;;;13.30;100.00;97609.72;4975595;28;20045;-47
2022/10/31 09:05:31;;;;;;;9.75;4.07;;;13.70;99.90;;;13.41;100.00;97603.97;4975983;28;20038;-50
2022/10/31 09:07:58;;;;;;;11.07;4.95;;;13.70;99.90;;;13.49;100.00;97603.63;4976574;28;20069;-50
2022/10/31 09:10:25;;;;;;;8.23;4.05;;;13.80;99.90;;;13.61;100.00;97612.81;4976098;28;20059;-47
2022/10/31 09:12:59;;;;;;;7.88;4.22;;;13.90;99.90;;;13.68;100.00;97604.50;4975402;28;20046;-46
2022/10/31 09:15:26;;;;;;;11.82;5.60;;;14.00;99.90;;;13.82;100.00;97621.53;4971727;28;20255;-49
2022/10/31 09:17:52;;;;;;;10.52;4.40;;;14.10;99.90;;;13.90;100.00;97599.03;4977949;28;20464;-48
2022/10/31 09:20:18;;;;;;;7.65;4.68;;;14.30;99.90;;;14.08;100.00;97609.72;4978083;28;20034;-47
2022/10/31 09:22:44;;;;;;;7.00;4.60;;;14.40;99.90;;;14.21;100.00;97604.69;4977350;28;20062;-48
2022/10/31 09:25:10;;;;;;;6.53;4.05;;;14.50;99.90;;;14.33;100.00;97601.44;4975929;28;20150;-46
2022/10/31 09:27:36;;;;;;;11.13;4.20;;;14.60;99.90;;;14.45;100.00;97586.72;4976929;28;20042;-46
2022/10/31 09:30:03;;;;;;;8.70;4.85;;;14.80;99.90;;;14.54;100.00;97599.53;4974327;28;20033;-49
2022/10/31 09:32:28;;;;;;;7.97;4.57;;;14.80;99.90;;;14.63;100.00;97590.28;4973433;28;20026;-48
2022/10/31 09:34:54;;;;;;;9.38;4.80;;;14.90;99.90;;;14.64;100.00;97606.13;4974452;28;20574;-48
2022/10/31 09:37:20;;;;;;;10.07;4.80;;;15.00;99.90;;;14.68;100.00;97598.88;4977250;28;20041;-46
2022/10/31 09:39:45;;;;;;;10.15;4.78;;;15.00;99.90;;;14.71;100.00;97601.34;4974082;28;20369;-46
2022/10/31 09:42:35;;;;;;;9.88;5.00;;;15.00;99.90;;;14.72;100.00;97597.78;4977822;28;20039;-47
2022/10/31 09:45:26;;;;;;;11.50;4.60;;;15.00;99.90;;;14.71;100.00;97601.34;4989620;28;20172;-48
2022/10/31 09:48:19;;;;;;;7.60;4.45;;;15.00;99.90;;;14.70;100.00;97604.97;4974873;28;20066;-48
2022/10/31 09:51:05;;;;;;;13.18;4.57;;;15.00;99.90;;;14.68;100.00;97594.41;4976872;28;20038;-48
2022/10/31 09:54:03;;;;;;;8.00;3.97;;;15.00;99.90;;;14.72;100.00;97594.28;4991600;28;20215;-49
2022/10/31 09:56:31;;;;;;;7.95;4.25;;;15.00;99.90;;;14.77;100.00;97594.88;4973981;28;20085;-47
2022/10/31 09:59:00;;;;;;;6.72;4.15;;;15.10;99.90;;;14.79;100.00;97590.38;4977934;28;20037;-49
2022/10/31 10:01:44;;;;;;;15.88;5.38;;;15.10;99.90;;;14.85;100.00;97598.88;4977542;28;20110;-47
2022/10/31 10:04:41;;;;;;;9.30;4.30;;;15.20;99.90;;;14.96;100.00;97593.00;4975414;28;20034;-46
2022/10/31 10:07:20;;;;;;;10.90;4.63;;;15.30;99.90;;;15.03;100.00;97596.22;4974046;28;20061;-49
2022/10/31 10:09:46;;;;;;;11.48;5.07;;;15.30;99.90;;;15.07;100.00;97588.00;4976507;28;20114;-46
2022/10/31 10:12:14;;;;;;;8.07;4.60;;;15.40;99.90;;;15.19;100.00;97593.63;4988575;28;20027;-46
2022/10/31 10:15:18;;;;;;;10.65;4.20;;;15.50;99.90;;;15.35;100.00;97589.19;4977642;28;20062;-48
2022/10/31 10:18:07;;;;;;;6.47;3.88;;;15.60;99.90;;;15.51;100.00;97589.25;4977770;28;20026;-48
2022/10/31 10:21:24;;;;;;;8.40;4.80;;;15.80;99.90;;;15.64;100.00;97579.66;4970782;28;20033;-47
2022/10/31 10:24:30;;;;;;;9.30;4.82;;;15.90;99.90;;;15.76;100.00;97582.63;4945179;28;20034;-45
2022/10/31 10:27:17;;;;;;;4.95;3.53;;;16.10;99.90;;;15.94;100.00;97588.72;4976316;28;20179;-45
2022/10/31 10:30:06;;;;;;;7.63;4.03;;;16.30;99.90;;;16.11;100.00;97580.66;4955184;28;20029;-46
2022/10/31 10:33:28;;;;;;;7.22;4.35;;;16.40;99.90;;;16.27;100.00;97583.28;4963766;28;20154;-46